Time;durP1;ratioP1;P1;durP2;ratioP2;P2;SDS_P1;SDS_P2;PMS_P1;PMS_P2;Temp;Humidity;BMP_temperature;BMP_pressure;BME280_temperature;BME280_humidity;BME280_pressure;Samples;Min_cycle;Max_cycle;Signal;HPM_P1;HPM_P2
2022/04/16 00:01:42;;;;;;;;;;;16.20;56.30;;;;;;5101906;28;19899;-67
2022/04/16 00:04:09;;;;;;;;;;;16.20;56.30;;;;;;5101930;28;19900;-68
2022/04/16 00:06:37;;;;;;;;;;;16.20;56.30;;;;;;5101913;28;20225;-67
2022/04/16 00:09:03;;;;;;;;;;;16.20;56.30;;;;;;5101832;28;19900;-67
2022/04/16 00:11:29;;;;;;;;;;;16.10;56.30;;;;;;5101777;28;19915;-67
2022/04/16 00:13:54;;;;;;;;;;;16.10;56.30;;;;;;5101795;28;19943;-68
2022/04/16 00:16:20;;;;;;;;;;;16.10;56.20;;;;;;5101752;28;19908;-67
2022/04/16 00:18:45;;;;;;;;;;;16.20;56.30;;;;;;5101588;28;19935;-67
2022/04/16 00:21:12;;;;;;;;;;;16.20;56.30;;;;;;5101686;28;19919;-67
2022/04/16 00:23:39;;;;;;;;;;;16.20;56.30;;;;;;5101479;28;19904;-67
2022/04/16 00:26:05;;;;;;;;;;;16.20;56.40;;;;;;5101460;28;19908;-68
2022/04/16 00:28:30;;;;;;;;;;;16.10;56.20;;;;;;5101449;28;19939;-67
2022/04/16 00:30:56;;;;;;;;;;;16.10;56.30;;;;;;5101367;28;19915;-67
2022/04/16 00:33:22;;;;;;;;;;;16.10;56.30;;;;;;5101311;28;20188;-67
2022/04/16 00:35:48;;;;;;;;;;;16.10;56.20;;;;;;5101243;28;19928;-66
2022/04/16 00:38:14;;;;;;;;;;;16.10;56.20;;;;;;5101307;28;20358;-67
2022/04/16 00:40:40;;;;;;;;;;;16.10;56.20;;;;;;5101169;28;19930;-68
2022/04/16 00:43:06;;;;;;;;;;;16.10;56.20;;;;;;5101085;28;19904;-67
2022/04/16 00:45:32;;;;;;;;;;;16.10;56.20;;;;;;5101140;28;19900;-67
2022/04/16 00:47:59;;;;;;;;;;;16.10;56.20;;;;;;5101045;28;19960;-67
2022/04/16 00:50:25;;;;;;;;;;;16.10;56.30;;;;;;5101289;28;19915;-67
2022/04/16 00:52:51;;;;;;;;;;;16.10;56.30;;;;;;5101016;28;19908;-67
2022/04/16 00:55:17;;;;;;;;;;;16.10;56.20;;;;;;5100812;28;19974;-67
2022/04/16 00:57:42;;;;;;;;;;;16.10;56.20;;;;;;5100924;28;19971;-67
2022/04/16 01:00:09;;;;;;;;;;;16.10;56.20;;;;;;5099533;28;19907;-67
2022/04/16 01:02:35;;;;;;;;;;;16.10;56.20;;;;;;5100754;28;19912;-67
2022/04/16 01:05:01;;;;;;;;;;;16.10;56.10;;;;;;5100759;28;19908;-67
2022/04/16 01:07:27;;;;;;;;;;;16.10;56.10;;;;;;5100735;28;19930;-68
2022/04/16 01:09:52;;;;;;;;;;;16.10;56.10;;;;;;5100755;28;19907;-66
2022/04/16 01:12:18;;;;;;;;;;;16.10;56.10;;;;;;5100684;28;19942;-67
2022/04/16 01:14:45;;;;;;;;;;;16.10;56.10;;;;;;5100702;28;19919;-67
2022/04/16 01:17:11;;;;;;;;;;;16.10;56.10;;;;;;5100683;28;20339;-67
2022/04/16 01:19:37;;;;;;;;;;;16.10;56.10;;;;;;5100569;28;20222;-67
2022/04/16 01:22:05;;;;;;;;;;;16.10;56.10;;;;;;5100415;28;19982;-67
2022/04/16 01:24:31;;;;;;;;;;;16.10;56.10;;;;;;5100533;28;20203;-67
2022/04/16 01:26:58;;;;;;;;;;;16.10;56.10;;;;;;5100457;28;19907;-67
2022/04/16 01:29:24;;;;;;;;;;;16.10;56.10;;;;;;5100713;28;20006;-67
2022/04/16 01:31:50;;;;;;;;;;;16.10;56.10;;;;;;5100344;28;19969;-68
2022/04/16 01:34:17;;;;;;;;;;;16.10;56.10;;;;;;5100363;28;19934;-67
2022/04/16 01:36:43;;;;;;;;;;;16.10;56.10;;;;;;5100421;28;20234;-66
2022/04/16 01:39:08;;;;;;;;;;;16.10;56.10;;;;;;5100205;28;19907;-67
2022/04/16 01:41:35;;;;;;;;;;;16.10;56.10;;;;;;5100210;28;19908;-67
2022/04/16 01:44:01;;;;;;;;;;;16.10;56.10;;;;;;5100008;28;19932;-66
2022/04/16 01:46:27;;;;;;;;;;;16.10;56.10;;;;;;5100172;28;19919;-67
2022/04/16 01:48:53;;;;;;;;;;;16.10;56.10;;;;;;5100223;28;19900;-67
2022/04/16 01:51:23;;;;;;;;;;;16.10;56.20;;;;;;5099972;28;19930;-67
2022/04/16 01:53:48;;;;;;;;;;;16.10;56.20;;;;;;5100126;28;19900;-68
2022/04/16 01:56:14;;;;;;;;;;;16.10;56.20;;;;;;5100121;28;20123;-67
2022/04/16 01:58:41;;;;;;;;;;;16.10;56.10;;;;;;5100059;28;19975;-67
2022/04/16 02:01:07;;;;;;;;;;;16.10;56.10;;;;;;5100052;28;20007;-68
2022/04/16 02:03:33;;;;;;;;;;;16.10;56.10;;;;;;5099966;28;19918;-68
2022/04/16 02:05:59;;;;;;;;;;;16.10;56.10;;;;;;5099935;28;20208;-67
2022/04/16 02:08:24;;;;;;;;;;;16.10;56.10;;;;;;5100009;28;19908;-67
2022/04/16 02:10:50;;;;;;;;;;;16.10;56.10;;;;;;5099874;28;20370;-67
2022/04/16 02:13:16;;;;;;;;;;;16.10;56.10;;;;;;5099928;28;19939;-67
2022/04/16 02:15:41;;;;;;;;;;;16.10;56.00;;;;;;5099904;28;20202;-67
2022/04/16 02:18:07;;;;;;;;;;;16.10;56.10;;;;;;5099830;28;20188;-67
2022/04/16 02:20:32;;;;;;;;;;;16.10;56.10;;;;;;5099896;28;20156;-67
2022/04/16 02:22:58;;;;;;;;;;;16.00;56.10;;;;;;5100014;28;19904;-67
2022/04/16 02:25:24;;;;;;;;;;;16.00;56.10;;;;;;5099796;28;19974;-67
2022/04/16 02:27:50;;;;;;;;;;;16.00;56.10;;;;;;5099955;28;19908;-67
2022/04/16 02:30:16;;;;;;;;;;;16.00;56.10;;;;;;5099740;28;19899;-67
2022/04/16 02:32:43;;;;;;;;;;;16.00;56.10;;;;;;5099818;28;20005;-67
2022/04/16 02:35:10;;;;;;;;;;;16.00;56.10;;;;;;5099697;28;19908;-67
2022/04/16 02:37:36;;;;;;;;;;;16.00;56.10;;;;;;5099737;28;19908;-67
2022/04/16 02:40:02;;;;;;;;;;;16.10;56.10;;;;;;5099705;28;19908;-67
2022/04/16 02:42:28;;;;;;;;;;;16.00;56.00;;;;;;5099412;28;19903;-67
2022/04/16 02:47:37;;;;;;;;;;;16.00;56.10;;;;;;5099551;28;20242;-67
2022/04/16 02:50:03;;;;;;;;;;;16.00;56.10;;;;;;5099594;28;19900;-67
2022/04/16 02:52:31;;;;;;;;;;;16.00;56.10;;;;;;5099548;28;19908;-67
2022/04/16 02:54:57;;;;;;;;;;;16.00;56.10;;;;;;5099300;28;19912;-67
2022/04/16 02:57:22;;;;;;;;;;;16.00;56.10;;;;;;5101844;28;19946;-66
2022/04/16 02:59:48;;;;;;;;;;;16.00;56.10;;;;;;5103131;28;19900;-67
2022/04/16 03:02:14;;;;;;;;;;;16.00;56.10;;;;;;5103121;28;19919;-67
2022/04/16 03:04:39;;;;;;;;;;;16.00;56.00;;;;;;5103045;28;19915;-67
2022/04/16 03:07:05;;;;;;;;;;;16.00;56.10;;;;;;5103083;28;19945;-67
2022/04/16 03:09:30;;;;;;;;;;;16.00;56.00;;;;;;5102953;28;19907;-67
2022/04/16 03:11:56;;;;;;;;;;;16.00;56.00;;;;;;5102968;28;19914;-66
2022/04/16 03:19:50;;;;;;;;;;;16.00;56.10;;;;;;5102794;28;19915;-67
2022/04/16 03:22:15;;;;;;;;;;;16.00;56.10;;;;;;5102719;28;19912;-67
2022/04/16 03:24:41;;;;;;;;;;;16.00;56.10;;;;;;5102674;28;19915;-67
2022/04/16 03:27:07;;;;;;;;;;;16.00;56.10;;;;;;5102603;28;19969;-66
2022/04/16 03:29:34;;;;;;;;;;;16.00;56.10;;;;;;5102529;28;19904;-67
2022/04/16 03:31:59;;;;;;;;;;;15.90;56.10;;;;;;5102526;28;20226;-67
2022/04/16 03:34:25;;;;;;;;;;;16.00;56.00;;;;;;5102500;28;19908;-68
2022/04/16 03:36:50;;;;;;;;;;;16.00;56.10;;;;;;5102416;28;19915;-67
2022/04/16 03:39:16;;;;;;;;;;;16.00;56.00;;;;;;5102402;28;19908;-67
2022/04/16 03:41:42;;;;;;;;;;;16.00;56.00;;;;;;5102333;28;19945;-65
2022/04/16 03:44:07;;;;;;;;;;;16.00;56.70;;;;;;5102568;28;20180;-67
2022/04/16 03:46:33;;;;;;;;;;;15.90;56.00;;;;;;5102274;28;19911;-68
2022/04/16 03:48:59;;;;;;;;;;;15.90;56.00;;;;;;5102168;28;19915;-67
2022/04/16 03:51:26;;;;;;;;;;;15.90;56.00;;;;;;5102151;28;19908;-67
2022/04/16 03:53:52;;;;;;;;;;;15.90;56.00;;;;;;5102012;28;19907;-67
2022/04/16 04:01:46;;;;;;;;;;;15.90;56.00;;;;;;5101870;28;19971;-67
2022/04/16 04:04:12;;;;;;;;;;;16.00;56.10;;;;;;5101911;28;20100;-67
2022/04/16 04:06:38;;;;;;;;;;;15.90;56.00;;;;;;5101697;28;19938;-67
2022/04/16 04:09:04;;;;;;;;;;;15.90;56.00;;;;;;5101530;28;19919;-67
2022/04/16 04:11:29;;;;;;;;;;;15.90;56.00;;;;;;5101735;28;19908;-67
2022/04/16 04:13:55;;;;;;;;;;;15.90;56.00;;;;;;5101709;28;19920;-67
2022/04/16 04:16:22;;;;;;;;;;;16.00;56.00;;;;;;5101661;28;19947;-66
2022/04/16 04:18:48;;;;;;;;;;;16.00;56.10;;;;;;5101539;28;19900;-66
2022/04/16 04:21:13;;;;;;;;;;;15.90;56.00;;;;;;5101612;28;19974;-67
2022/04/16 04:23:39;;;;;;;;;;;15.90;56.00;;;;;;5101392;28;19935;-67
2022/04/16 04:26:05;;;;;;;;;;;15.90;55.90;;;;;;5101443;28;19908;-68
2022/04/16 04:28:30;;;;;;;;;;;15.90;56.00;;;;;;5101359;28;19919;-67
2022/04/16 04:30:56;;;;;;;;;;;15.90;56.00;;;;;;5101363;28;20456;-67
2022/04/16 04:33:21;;;;;;;;;;;15.90;56.00;;;;;;5101329;28;19900;-67
2022/04/16 04:35:47;;;;;;;;;;;15.90;56.00;;;;;;5101242;28;19900;-67
2022/04/16 04:38:13;;;;;;;;;;;15.90;56.00;;;;;;5101239;28;19900;-68
2022/04/16 04:40:39;;;;;;;;;;;15.90;56.00;;;;;;5101025;28;19915;-66
2022/04/16 04:43:04;;;;;;;;;;;15.90;56.00;;;;;;5101114;28;19912;-68
2022/04/16 04:45:30;;;;;;;;;;;15.90;56.00;;;;;;5101126;28;19915;-67
2022/04/16 04:47:55;;;;;;;;;;;15.90;55.90;;;;;;5101037;28;19904;-68
2022/04/16 04:50:21;;;;;;;;;;;15.90;55.90;;;;;;5100963;28;19908;-67
2022/04/16 04:52:46;;;;;;;;;;;15.90;56.00;;;;;;5100987;28;19941;-66
2022/04/16 04:55:12;;;;;;;;;;;15.90;56.00;;;;;;5100806;28;19955;-67
2022/04/16 04:57:38;;;;;;;;;;;15.90;56.00;;;;;;5100821;28;19900;-68
2022/04/16 05:00:05;;;;;;;;;;;15.90;56.10;;;;;;5101078;28;19908;-67
2022/04/16 05:02:40;;;;;;;;;;;15.90;56.00;;;;;;5100721;28;19912;-67
2022/04/16 05:05:06;;;;;;;;;;;15.90;56.00;;;;;;5100986;28;19908;-67
2022/04/16 05:07:32;;;;;;;;;;;15.90;56.00;;;;;;5100782;28;19900;-67
2022/04/16 05:09:57;;;;;;;;;;;15.90;56.00;;;;;;5100588;28;19900;-67
2022/04/16 05:12:23;;;;;;;;;;;15.90;56.00;;;;;;5100663;28;19904;-67
2022/04/16 05:14:48;;;;;;;;;;;15.90;56.10;;;;;;5100584;28;19914;-67
2022/04/16 05:17:14;;;;;;;;;;;15.90;56.00;;;;;;5100467;28;19915;-67
2022/04/16 05:19:39;;;;;;;;;;;15.90;56.00;;;;;;5099951;28;19908;-67
2022/04/16 05:22:05;;;;;;;;;;;15.90;56.00;;;;;;5100397;28;19912;-68
2022/04/16 05:24:30;;;;;;;;;;;15.90;56.00;;;;;;5100603;28;20188;-67
2022/04/16 05:26:56;;;;;;;;;;;15.90;56.00;;;;;;5100378;28;19985;-68
2022/04/16 05:29:23;;;;;;;;;;;15.90;56.00;;;;;;5100417;28;19950;-67
2022/04/16 05:31:49;;;;;;;;;;;15.90;56.00;;;;;;5100281;28;19908;-67
2022/04/16 05:34:21;;;;;;;;;;;15.90;55.90;;;;;;5100310;28;19999;-67
2022/04/16 05:36:47;;;;;;;;;;;15.90;55.90;;;;;;5100259;28;19946;-67
2022/04/16 05:39:13;;;;;;;;;;;15.90;55.90;;;;;;5100161;28;19900;-68
2022/04/16 05:41:38;;;;;;;;;;;15.90;55.90;;;;;;5100130;28;19979;-67
2022/04/16 05:44:04;;;;;;;;;;;15.90;55.90;;;;;;5100154;28;20243;-67
2022/04/16 05:46:30;;;;;;;;;;;15.90;56.00;;;;;;5100169;28;20081;-68
2022/04/16 05:48:56;;;;;;;;;;;15.90;55.90;;;;;;5098743;28;19908;-67
2022/04/16 05:51:21;;;;;;;;;;;15.90;55.90;;;;;;5100130;28;19908;-67
2022/04/16 05:53:48;;;;;;;;;;;15.90;55.80;;;;;;5100027;28;19906;-67
2022/04/16 05:56:14;;;;;;;;;;;15.90;55.80;;;;;;5099908;28;19961;-67
2022/04/16 05:58:40;;;;;;;;;;;15.90;55.80;;;;;;5099986;28;20196;-68
2022/04/16 06:01:06;;;;;;;;;;;15.90;55.80;;;;;;5100001;28;19908;-67
2022/04/16 06:03:33;;;;;;;;;;;15.90;55.70;;;;;;5099952;28;19904;-67
2022/04/16 06:06:00;;;;;;;;;;;15.90;55.80;;;;;;5099973;28;19911;-68
2022/04/16 06:08:26;;;;;;;;;;;15.90;55.80;;;;;;5099898;28;19912;-68
2022/04/16 06:10:52;;;;;;;;;;;15.90;55.80;;;;;;5099954;28;20215;-67
2022/04/16 06:13:17;;;;;;;;;;;15.90;55.80;;;;;;5099788;28;19900;-68
2022/04/16 06:15:43;;;;;;;;;;;15.90;55.80;;;;;;5098522;28;19946;-67
2022/04/16 06:18:12;;;;;;;;;;;15.90;55.80;;;;;;5099791;28;19981;-66
2022/04/16 06:20:38;;;;;;;;;;;15.90;55.80;;;;;;5099687;28;19903;-67
2022/04/16 06:23:04;;;;;;;;;;;15.90;55.80;;;;;;5099784;28;19911;-67
2022/04/16 06:25:29;;;;;;;;;;;15.90;55.80;;;;;;5099826;28;19980;-67
2022/04/16 06:27:55;;;;;;;;;;;15.90;55.90;;;;;;5098512;28;20293;-67
2022/04/16 06:30:21;;;;;;;;;;;15.90;55.90;;;;;;5100560;28;20100;-67
2022/04/16 06:32:46;;;;;;;;;;;15.90;56.40;;;;;;5103631;28;19908;-67
2022/04/16 06:35:12;;;;;;;;;;;15.90;55.80;;;;;;5103691;28;19931;-67
2022/04/16 06:37:38;;;;;;;;;;;15.90;55.80;;;;;;5103576;28;20072;-66
2022/04/16 06:40:05;;;;;;;;;;;15.90;55.80;;;;;;5103578;28;19908;-68
2022/04/16 06:42:31;;;;;;;;;;;15.90;55.70;;;;;;5103448;28;19912;-67
2022/04/16 06:44:56;;;;;;;;;;;15.90;55.70;;;;;;5103405;28;19900;-66
2022/04/16 06:47:22;;;;;;;;;;;15.90;55.70;;;;;;5103488;28;19900;-67
2022/04/16 06:49:47;;;;;;;;;;;15.90;55.70;;;;;;5103267;28;19957;-66
2022/04/16 06:52:13;;;;;;;;;;;15.90;55.70;;;;;;5103314;28;19970;-68
2022/04/16 06:54:39;;;;;;;;;;;15.90;55.70;;;;;;5103113;28;20201;-67
2022/04/16 06:57:04;;;;;;;;;;;15.90;55.80;;;;;;5103294;28;20251;-67
2022/04/16 06:59:30;;;;;;;;;;;15.90;55.70;;;;;;5103257;28;19953;-67
2022/04/16 07:01:55;;;;;;;;;;;15.90;55.70;;;;;;5103055;28;19912;-67
2022/04/16 07:04:21;;;;;;;;;;;15.90;55.80;;;;;;5103079;28;19931;-67
2022/04/16 07:06:46;;;;;;;;;;;15.90;55.80;;;;;;5101709;28;20215;-66
2022/04/16 07:09:12;;;;;;;;;;;15.90;55.80;;;;;;5103232;28;19907;-67
2022/04/16 07:11:37;;;;;;;;;;;15.90;55.80;;;;;;5102833;28;20095;-67
2022/04/16 07:14:03;;;;;;;;;;;15.90;55.80;;;;;;5102915;28;20179;-68
2022/04/16 07:16:28;;;;;;;;;;;15.90;55.80;;;;;;5102807;28;19915;-67
2022/04/16 07:18:54;;;;;;;;;;;15.90;55.80;;;;;;5102815;28;19935;-66
2022/04/16 07:21:19;;;;;;;;;;;15.80;55.80;;;;;;5102723;28;19912;-68
2022/04/16 07:23:45;;;;;;;;;;;15.90;55.90;;;;;;5102640;28;20143;-67
2022/04/16 07:26:11;;;;;;;;;;;15.90;55.80;;;;;;5102681;28;20192;-67
2022/04/16 07:28:36;;;;;;;;;;;15.80;55.80;;;;;;5102511;28;19967;-67
2022/04/16 07:31:02;;;;;;;;;;;15.90;55.90;;;;;;5102523;28;19900;-66
2022/04/16 07:33:28;;;;;;;;;;;15.80;55.80;;;;;;5102444;28;19900;-67
2022/04/16 07:35:53;;;;;;;;;;;15.80;55.90;;;;;;5102486;28;19900;-67
2022/04/16 07:38:19;;;;;;;;;;;15.90;55.80;;;;;;5102370;28;19908;-67
2022/04/16 07:40:44;;;;;;;;;;;15.80;55.80;;;;;;5102374;28;19908;-67
2022/04/16 07:43:10;;;;;;;;;;;15.90;55.80;;;;;;5101491;28;19941;-67
2022/04/16 07:45:35;;;;;;;;;;;15.90;55.80;;;;;;5102254;28;19915;-67
2022/04/16 07:48:01;;;;;;;;;;;15.80;55.80;;;;;;5102425;28;19908;-67
2022/04/16 07:50:26;;;;;;;;;;;15.80;55.80;;;;;;5102090;28;20196;-66
2022/04/16 07:52:52;;;;;;;;;;;15.80;55.80;;;;;;5102087;28;19900;-67
2022/04/16 07:55:17;;;;;;;;;;;15.80;55.80;;;;;;5101841;28;19918;-67
2022/04/16 07:57:43;;;;;;;;;;;15.90;55.80;;;;;;5102052;28;19971;-67
2022/04/16 08:00:09;;;;;;;;;;;15.90;55.80;;;;;;5102217;28;19908;-66
2022/04/16 08:02:35;;;;;;;;;;;15.90;55.80;;;;;;5102118;28;19919;-67
2022/04/16 08:05:00;;;;;;;;;;;15.90;55.70;;;;;;5101850;28;20103;-67
2022/04/16 08:07:26;;;;;;;;;;;15.90;55.70;;;;;;5101776;28;19915;-67
2022/04/16 08:09:52;;;;;;;;;;;15.90;55.70;;;;;;5101838;28;19900;-67
2022/04/16 08:12:17;;;;;;;;;;;15.90;55.70;;;;;;5100359;28;19900;-67
2022/04/16 08:14:43;;;;;;;;;;;15.90;55.70;;;;;;5101737;28;19907;-67
2022/04/16 08:17:08;;;;;;;;;;;15.90;55.80;;;;;;5101599;28;19908;-67
2022/04/16 08:19:34;;;;;;;;;;;15.90;55.80;;;;;;5101617;28;20324;-67
2022/04/16 08:22:00;;;;;;;;;;;15.90;55.80;;;;;;5101683;28;19918;-67
2022/04/16 08:26:52;;;;;;;;;;;15.90;55.80;;;;;;5101780;28;19900;-66
2022/04/16 08:29:17;;;;;;;;;;;15.90;55.80;;;;;;5101392;28;19900;-67
2022/04/16 08:31:43;;;;;;;;;;;15.90;55.80;;;;;;5101419;28;19900;-67
2022/04/16 08:34:08;;;;;;;;;;;15.90;55.80;;;;;;5101305;28;19915;-67
2022/04/16 08:36:34;;;;;;;;;;;15.90;55.90;;;;;;5101318;28;19997;-67
2022/04/16 08:38:59;;;;;;;;;;;15.90;55.90;;;;;;5101262;28;19983;-67
2022/04/16 08:41:26;;;;;;;;;;;15.80;55.90;;;;;;5101177;28;19943;-68
2022/04/16 08:43:52;;;;;;;;;;;15.80;55.90;;;;;;5101150;28;19910;-67
2022/04/16 08:46:18;;;;;;;;;;;15.80;55.90;;;;;;5101026;28;20104;-67
2022/04/16 08:48:43;;;;;;;;;;;15.80;56.00;;;;;;5101059;28;19908;-67
2022/04/16 08:51:09;;;;;;;;;;;15.80;56.00;;;;;;5101239;28;19915;-66
2022/04/16 08:53:35;;;;;;;;;;;15.80;56.00;;;;;;5100557;28;20203;-67
2022/04/16 08:56:01;;;;;;;;;;;15.80;56.00;;;;;;5100517;28;19991;-68
2022/04/16 08:58:29;;;;;;;;;;;15.80;56.00;;;;;;5100872;28;19900;-67
2022/04/16 09:00:55;;;;;;;;;;;15.80;55.90;;;;;;5100879;28;19950;-67
2022/04/16 09:03:20;;;;;;;;;;;15.80;55.90;;;;;;5099398;28;19911;-68
2022/04/16 09:05:46;;;;;;;;;;;15.90;55.90;;;;;;5101273;28;19908;-67
2022/04/16 09:08:11;;;;;;;;;;;15.80;56.00;;;;;;5100645;28;20159;-66
2022/04/16 09:10:40;;;;;;;;;;;15.90;56.00;;;;;;5100603;28;19900;-68
2022/04/16 09:13:06;;;;;;;;;;;15.90;56.00;;;;;;5100605;28;19943;-67
2022/04/16 09:15:34;;;;;;;;;;;15.90;55.90;;;;;;5100593;28;19900;-66
2022/04/16 09:18:00;;;;;;;;;;;15.90;55.90;;;;;;5100529;28;19975;-67
2022/04/16 09:20:33;;;;;;;;;;;15.90;56.00;;;;;;5100502;28;19945;-67
2022/04/16 09:23:00;;;;;;;;;;;15.90;56.00;;;;;;5100359;28;20033;-67
2022/04/16 09:25:28;;;;;;;;;;;15.90;55.90;;;;;;5100468;28;19908;-67
2022/04/16 09:27:53;;;;;;;;;;;15.90;56.00;;;;;;5099093;28;20200;-67
2022/04/16 09:30:22;;;;;;;;;;;15.90;55.90;;;;;;5100338;28;19915;-67
2022/04/16 09:32:48;;;;;;;;;;;15.90;55.80;;;;;;5100293;28;20081;-67
2022/04/16 09:35:33;;;;;;;;;;;15.90;55.90;;;;;;5100340;28;19904;-67
2022/04/16 09:37:59;;;;;;;;;;;15.90;55.80;;;;;;5100243;28;19900;-68
2022/04/16 09:40:35;;;;;;;;;;;15.90;55.80;;;;;;5100240;28;19912;-68
2022/04/16 09:43:09;;;;;;;;;;;15.90;55.70;;;;;;5100201;28;19912;-68
2022/04/16 09:45:38;;;;;;;;;;;16.00;55.70;;;;;;5098995;28;19908;-67
2022/04/16 09:48:07;;;;;;;;;;;16.00;55.70;;;;;;5100211;28;19943;-67
2022/04/16 09:50:33;;;;;;;;;;;16.00;55.70;;;;;;5100172;28;20131;-68
2022/04/16 09:53:01;;;;;;;;;;;16.00;55.60;;;;;;5100053;28;19908;-68
2022/04/16 09:55:27;;;;;;;;;;;16.00;55.60;;;;;;5099895;28;19975;-67
2022/04/16 09:57:57;;;;;;;;;;;16.00;55.70;;;;;;5100111;28;19907;-67
2022/04/16 10:00:24;;;;;;;;;;;16.00;55.70;;;;;;5100124;28;20366;-67
2022/04/16 10:02:50;;;;;;;;;;;16.00;55.80;;;;;;5099908;28;19912;-67
2022/04/16 10:05:16;;;;;;;;;;;16.00;55.80;;;;;;5100680;28;19918;-66
2022/04/16 10:07:43;;;;;;;;;;;16.00;55.80;;;;;;5104294;28;20089;-66
2022/04/16 10:10:17;;;;;;;;;;;16.00;55.80;;;;;;5104182;28;19907;-67
2022/04/16 10:12:59;;;;;;;;;;;16.00;55.80;;;;;;5102890;28;20347;-67
2022/04/16 10:15:27;;;;;;;;;;;16.00;55.80;;;;;;5103997;28;20116;-66
2022/04/16 10:17:53;;;;;;;;;;;16.00;55.70;;;;;;5104012;28;19977;-67
2022/04/16 10:20:20;;;;;;;;;;;16.00;55.70;;;;;;5103984;28;19912;-68
2022/04/16 10:22:56;;;;;;;;;;;16.00;55.70;;;;;;5103883;28;19911;-67
2022/04/16 10:25:39;;;;;;;;;;;16.00;55.70;;;;;;5103936;28;19907;-67
2022/04/16 10:28:06;;;;;;;;;;;16.00;55.80;;;;;;5103947;28;19924;-67
2022/04/16 10:30:42;;;;;;;;;;;16.00;55.90;;;;;;5103848;28;19900;-67
2022/04/16 10:33:18;;;;;;;;;;;16.00;55.90;;;;;;5103699;28;19900;-67
2022/04/16 10:35:50;;;;;;;;;;;16.00;55.90;;;;;;5102486;28;19900;-67
2022/04/16 10:38:22;;;;;;;;;;;16.00;55.90;;;;;;5103641;28;19912;-68
2022/04/16 10:40:58;;;;;;;;;;;16.00;55.90;;;;;;5103632;28;19966;-67
2022/04/16 10:43:33;;;;;;;;;;;16.00;55.90;;;;;;5103504;28;19987;-67
2022/04/16 10:46:03;;;;;;;;;;;16.00;55.90;;;;;;5103561;28;20394;-67
2022/04/16 10:48:31;;;;;;;;;;;16.00;55.90;;;;;;5103486;28;19904;-66
2022/04/16 10:50:58;;;;;;;;;;;16.00;55.90;;;;;;5103454;28;19956;-67
2022/04/16 10:53:30;;;;;;;;;;;16.00;55.90;;;;;;5103382;28;19904;-67
2022/04/16 10:55:58;;;;;;;;;;;16.00;55.90;;;;;;5103273;28;19920;-67
2022/04/16 10:58:27;;;;;;;;;;;16.00;55.90;;;;;;5103319;28;19946;-67
2022/04/16 11:01:03;;;;;;;;;;;16.00;56.50;;;;;;5103244;28;19900;-67
2022/04/16 11:03:31;;;;;;;;;;;16.00;55.90;;;;;;5103089;28;19920;-68
2022/04/16 11:06:01;;;;;;;;;;;16.10;55.90;;;;;;5103129;28;19907;-66
2022/04/16 11:08:27;;;;;;;;;;;16.00;55.90;;;;;;5103025;28;19900;-67
2022/04/16 11:10:56;;;;;;;;;;;16.10;55.90;;;;;;5103061;28;19907;-67
2022/04/16 11:13:22;;;;;;;;;;;16.10;55.80;;;;;;5102952;28;19931;-67
2022/04/16 11:15:48;;;;;;;;;;;16.10;55.80;;;;;;5102879;28;19899;-67
2022/04/16 11:18:15;;;;;;;;;;;16.10;55.80;;;;;;5101698;28;20302;-67
2022/04/16 11:20:43;;;;;;;;;;;16.10;55.80;;;;;;5103148;28;19908;-67
2022/04/16 11:23:09;;;;;;;;;;;16.10;55.80;;;;;;5102771;28;19976;-67
2022/04/16 11:34:15;;;;;;;;;;;16.10;55.80;;;;;;5102555;28;19930;-67
2022/04/16 11:36:40;;;;;;;;;;;16.10;55.80;;;;;;5102537;28;19908;-67
2022/04/16 11:39:15;;;;;;;;;;;16.10;55.70;;;;;;5102426;28;19988;-67
2022/04/16 11:41:46;;;;;;;;;;;16.10;55.70;;;;;;5102461;28;19908;-67
2022/04/16 11:44:11;;;;;;;;;;;16.10;55.60;;;;;;5102702;28;19919;-67
2022/04/16 11:46:41;;;;;;;;;;;16.20;55.70;;;;;;5102295;28;20188;-67
2022/04/16 11:49:07;;;;;;;;;;;16.20;55.70;;;;;;5102215;28;20131;-67
2022/04/16 11:51:36;;;;;;;;;;;16.10;55.60;;;;;;5102290;28;20195;-67
2022/04/16 11:54:02;;;;;;;;;;;16.20;55.80;;;;;;5101937;28;19907;-68
2022/04/16 11:56:27;;;;;;;;;;;16.20;55.70;;;;;;5102038;28;19904;-67
2022/04/16 11:58:53;;;;;;;;;;;16.20;55.70;;;;;;5102138;28;19900;-68
2022/04/16 12:01:20;;;;;;;;;;;16.10;55.70;;;;;;5102067;28;19982;-67
2022/04/16 12:03:45;;;;;;;;;;;16.20;55.80;;;;;;5101906;28;19955;-68
2022/04/16 12:06:12;;;;;;;;;;;16.10;55.70;;;;;;5101985;28;19908;-67
2022/04/16 12:08:39;;;;;;;;;;;16.10;55.80;;;;;;5101874;28;19937;-67
2022/04/16 12:11:05;;;;;;;;;;;16.10;55.80;;;;;;5101903;28;20005;-67
2022/04/16 12:13:37;;;;;;;;;;;16.10;55.80;;;;;;5101867;28;20199;-67
2022/04/16 12:16:11;;;;;;;;;;;16.10;55.80;;;;;;5101826;28;20180;-67
2022/04/16 12:18:37;;;;;;;;;;;16.20;55.90;;;;;;5101755;28;20104;-66
2022/04/16 12:21:07;;;;;;;;;;;16.20;55.80;;;;;;5101714;28;19915;-67
2022/04/16 12:23:33;;;;;;;;;;;16.20;55.80;;;;;;5101589;28;19910;-67
2022/04/16 12:26:09;;;;;;;;;;;16.20;55.70;;;;;;5101586;28;19908;-67
2022/04/16 12:28:35;;;;;;;;;;;16.20;55.80;;;;;;5101295;28;19979;-66
2022/04/16 12:31:01;;;;;;;;;;;16.20;55.70;;;;;;5101594;28;19979;-67
2022/04/16 12:33:27;;;;;;;;;;;16.20;55.70;;;;;;5101405;28;19900;-66
2022/04/16 12:35:56;;;;;;;;;;;16.20;56.30;;;;;;5101426;28;19900;-67
2022/04/16 12:38:22;;;;;;;;;;;16.30;55.60;;;;;;5101369;28;19908;-67
2022/04/16 12:40:47;;;;;;;;;;;16.30;55.50;;;;;;5101212;28;20111;-67
2022/04/16 12:43:15;;;;;;;;;;;16.30;55.50;;;;;;5101149;28;19904;-67
2022/04/16 12:45:41;;;;;;;;;;;16.30;55.50;;;;;;5101170;28;19908;-68
2022/04/16 12:48:06;;;;;;;;;;;16.40;55.40;;;;;;5101107;28;19946;-68
2022/04/16 12:50:33;;;;;;;;;;;16.40;55.40;;;;;;5101146;28;20141;-67
2022/04/16 12:53:01;;;;;;;;;;;16.30;55.50;;;;;;5101026;28;20184;-67
2022/04/16 12:55:30;;;;;;;;;;;16.30;55.50;;;;;;5099504;28;19912;-67
2022/04/16 12:57:59;;;;;;;;;;;16.40;55.50;;;;;;5100997;28;20139;-68
2022/04/16 13:00:25;;;;;;;;;;;16.40;55.50;;;;;;5100957;28;19977;-67
2022/04/16 13:02:50;;;;;;;;;;;16.30;55.50;;;;;;5100680;28;19912;-67
2022/04/16 13:05:17;;;;;;;;;;;16.30;56.10;;;;;;5100794;28;19979;-67
2022/04/16 13:07:46;;;;;;;;;;;16.40;55.60;;;;;;5100773;28;19900;-67
2022/04/16 13:10:13;;;;;;;;;;;16.30;55.60;;;;;;5100760;28;19927;-67
2022/04/16 13:12:39;;;;;;;;;;;16.40;55.60;;;;;;5100684;28;20436;-67
2022/04/16 13:15:05;;;;;;;;;;;16.40;55.60;;;;;;5100679;28;19908;-66
2022/04/16 13:17:31;;;;;;;;;;;16.40;55.60;;;;;;5100663;28;19912;-67
2022/04/16 13:19:56;;;;;;;;;;;16.40;55.50;;;;;;5100494;28;20255;-67
2022/04/16 13:22:22;;;;;;;;;;;16.40;55.50;;;;;;5100478;28;20187;-67
2022/04/16 13:24:47;;;;;;;;;;;16.50;55.40;;;;;;5100469;28;19899;-67
2022/04/16 13:27:13;;;;;;;;;;;16.50;55.40;;;;;;5100459;28;20287;-67
2022/04/16 13:29:38;;;;;;;;;;;16.50;54.80;;;;;;5100391;28;19908;-67
2022/04/16 13:32:05;;;;;;;;;;;16.60;55.30;;;;;;5100347;28;19908;-67
2022/04/16 13:34:30;;;;;;;;;;;16.50;55.30;;;;;;5100340;28;19915;-67
2022/04/16 13:36:56;;;;;;;;;;;16.60;55.30;;;;;;5100324;28;19908;-67
2022/04/16 13:42:06;;;;;;;;;;;16.60;55.20;;;;;;5099977;28;19918;-67
2022/04/16 13:44:31;;;;;;;;;;;16.60;55.10;;;;;;5100445;28;19928;-66
2022/04/16 13:46:57;;;;;;;;;;;16.60;55.70;;;;;;5100151;28;20188;-66
2022/04/16 13:49:23;;;;;;;;;;;16.70;55.20;;;;;;5100152;28;19945;-68
2022/04/16 13:51:48;;;;;;;;;;;16.70;55.10;;;;;;5100033;28;19915;-67
2022/04/16 13:54:14;;;;;;;;;;;16.70;55.10;;;;;;5099959;28;19963;-67
2022/04/16 13:56:39;;;;;;;;;;;16.70;55.10;;;;;;5100055;28;19908;-67
2022/04/16 13:59:06;;;;;;;;;;;16.60;55.20;;;;;;5100022;28;19931;-67
2022/04/16 14:01:33;;;;;;;;;;;16.70;55.30;;;;;;5100266;28;19900;-67
2022/04/16 14:03:59;;;;;;;;;;;16.70;55.20;;;;;;5100001;28;19955;-66
2022/04/16 14:06:25;;;;;;;;;;;16.80;55.10;;;;;;5098760;28;20148;-67
2022/04/16 14:08:50;;;;;;;;;;;16.80;55.00;;;;;;5100007;28;19915;-67
2022/04/16 14:11:16;;;;;;;;;;;16.80;55.00;;;;;;5099980;28;19979;-68
2022/04/16 14:13:42;;;;;;;;;;;16.90;54.90;;;;;;5099956;28;19900;-67
2022/04/16 14:16:10;;;;;;;;;;;16.90;54.80;;;;;;5099936;28;19907;-67
2022/04/16 14:18:36;;;;;;;;;;;16.80;55.00;;;;;;5099941;28;19908;-66
2022/04/16 14:21:04;;;;;;;;;;;16.80;55.20;;;;;;5099900;28;19900;-67
2022/04/16 14:23:30;;;;;;;;;;;16.70;55.30;;;;;;5099712;28;19950;-67
2022/04/16 14:25:56;;;;;;;;;;;16.60;55.60;;;;;;5099801;28;19947;-67
2022/04/16 14:28:22;;;;;;;;;;;16.60;55.80;;;;;;5098490;28;20218;-67
2022/04/16 14:30:47;;;;;;;;;;;16.50;55.80;;;;;;5099744;28;19987;-67
2022/04/16 14:33:13;;;;;;;;;;;16.50;56.00;;;;;;5099746;28;19986;-67
2022/04/16 14:35:39;;;;;;;;;;;16.50;56.10;;;;;;5099724;28;19946;-68
2022/04/16 14:38:11;;;;;;;;;;;16.40;56.10;;;;;;5099770;28;19936;-66
2022/04/16 14:40:40;;;;;;;;;;;16.40;56.20;;;;;;5098426;28;19908;-67